sensor_id;sensor_type;location;lat;lon;timestamp;temperature;humidity
65472;DHT22;52068;50.710;14.492;2024-03-23T00:55:41;24.01;42.53
65472;DHT22;52068;50.710;14.492;2024-03-23T00:58:07;24.01;42.46
65472;DHT22;52068;50.710;14.492;2024-03-23T01:00:33;24.01;42.42
65472;DHT22;52068;50.710;14.492;2024-03-23T01:02:58;23.98;42.41
65472;DHT22;52068;50.710;14.492;2024-03-23T01:05:23;23.95;42.44
65472;DHT22;52068;50.710;14.492;2024-03-23T01:07:49;23.92;42.51
65472;DHT22;52068;50.710;14.492;2024-03-23T01:10:15;23.89;42.59
65472;DHT22;52068;50.710;14.492;2024-03-23T01:12:40;23.88;42.51
65472;DHT22;52068;50.710;14.492;2024-03-23T01:15:05;23.90;42.50
65472;DHT22;52068;50.710;14.492;2024-03-23T01:17:31;23.89;42.51
65472;DHT22;52068;50.710;14.492;2024-03-23T01:19:57;23.90;42.55
65472;DHT22;52068;50.710;14.492;2024-03-23T01:22:22;23.89;42.52
65472;DHT22;52068;50.710;14.492;2024-03-23T01:24:47;23.89;42.55
65472;DHT22;52068;50.710;14.492;2024-03-23T01:27:13;23.81;42.66
65472;DHT22;52068;50.710;14.492;2024-03-23T01:29:38;23.78;42.71
65472;DHT22;52068;50.710;14.492;2024-03-23T01:32:04;23.74;42.83
65472;DHT22;52068;50.710;14.492;2024-03-23T01:34:30;23.75;42.80
65472;DHT22;52068;50.710;14.492;2024-03-23T01:36:55;23.84;42.64
65472;DHT22;52068;50.710;14.492;2024-03-23T01:39:21;23.93;42.42
65472;DHT22;52068;50.710;14.492;2024-03-23T01:41:46;24.03;42.27
65472;DHT22;52068;50.710;14.492;2024-03-23T01:44:11;24.09;42.08
65472;DHT22;52068;50.710;14.492;2024-03-23T01:46:37;24.16;41.99
65472;DHT22;52068;50.710;14.492;2024-03-23T01:49:04;24.17;41.95
65472;DHT22;52068;50.710;14.492;2024-03-23T01:51:30;24.16;41.95
65472;DHT22;52068;50.710;14.492;2024-03-23T01:53:56;24.13;42.06
65472;DHT22;52068;50.710;14.492;2024-03-23T01:56:22;24.12;42.10
65472;DHT22;52068;50.710;14.492;2024-03-23T01:58:47;24.09;42.17
65472;DHT22;52068;50.710;14.492;2024-03-23T02:01:13;24.05;42.22
65472;DHT22;52068;50.710;14.492;2024-03-23T02:03:38;23.99;42.39
65472;DHT22;52068;50.710;14.492;2024-03-23T02:06:04;23.93;42.53
65472;DHT22;52068;50.710;14.492;2024-03-23T02:08:32;23.92;42.63
65472;DHT22;52068;50.710;14.492;2024-03-23T02:10:58;23.85;42.73
65472;DHT22;52068;50.710;14.492;2024-03-23T02:13:24;23.85;42.75
65472;DHT22;52068;50.710;14.492;2024-03-23T02:15:49;23.81;42.92
65472;DHT22;52068;50.710;14.492;2024-03-23T02:18:14;23.76;43.01
65472;DHT22;52068;50.710;14.492;2024-03-23T02:20:40;23.75;43.14
65472;DHT22;52068;50.710;14.492;2024-03-23T02:23:05;23.75;43.13
65472;DHT22;52068;50.710;14.492;2024-03-23T02:25:32;23.76;43.04
65472;DHT22;52068;50.710;14.492;2024-03-23T02:27:58;23.79;43.01
65472;DHT22;52068;50.710;14.492;2024-03-23T02:30:25;23.76;43.03
65472;DHT22;52068;50.710;14.492;2024-03-23T02:32:50;23.72;43.20
65472;DHT22;52068;50.710;14.492;2024-03-23T02:35:16;23.66;43.25
65472;DHT22;52068;50.710;14.492;2024-03-23T02:37:41;23.65;43.20
65472;DHT22;52068;50.710;14.492;2024-03-23T02:40:07;23.71;43.05
65472;DHT22;52068;50.710;14.492;2024-03-23T02:42:33;23.78;42.83
65472;DHT22;52068;50.710;14.492;2024-03-23T02:44:58;23.88;42.58
65472;DHT22;52068;50.710;14.492;2024-03-23T02:47:24;23.88;42.48
65472;DHT22;52068;50.710;14.492;2024-03-23T02:49:49;23.88;42.48
65472;DHT22;52068;50.710;14.492;2024-03-23T02:52:14;23.89;42.43
65472;DHT22;52068;50.710;14.492;2024-03-23T02:54:40;23.90;42.34
65472;DHT22;52068;50.710;14.492;2024-03-23T02:57:07;23.86;42.35
65472;DHT22;52068;50.710;14.492;2024-03-23T02:59:32;23.84;42.52
65472;DHT22;52068;50.710;14.492;2024-03-23T03:01:58;23.76;42.55
65472;DHT22;52068;50.710;14.492;2024-03-23T03:04:25;23.75;42.58
65472;DHT22;52068;50.710;14.492;2024-03-23T03:06:50;23.72;42.56
65472;DHT22;52068;50.710;14.492;2024-03-23T03:09:16;23.69;42.61
65472;DHT22;52068;50.710;14.492;2024-03-23T03:11:41;23.68;42.71
65472;DHT22;52068;50.710;14.492;2024-03-23T03:14:06;23.66;42.73
65472;DHT22;52068;50.710;14.492;2024-03-23T03:16:33;23.65;42.78
65472;DHT22;52068;50.710;14.492;2024-03-23T03:18:58;23.65;42.68
65472;DHT22;52068;50.710;14.492;2024-03-23T03:21:24;23.65;42.69
65472;DHT22;52068;50.710;14.492;2024-03-23T03:23:49;23.64;42.68
65472;DHT22;52068;50.710;14.492;2024-03-23T03:26:16;23.61;42.72
65472;DHT22;52068;50.710;14.492;2024-03-23T03:28:42;23.62;42.80
65472;DHT22;52068;50.710;14.492;2024-03-23T03:31:08;23.57;42.89
65472;DHT22;52068;50.710;14.492;2024-03-23T03:33:33;23.48;42.99
65472;DHT22;52068;50.710;14.492;2024-03-23T03:35:59;23.44;43.10
65472;DHT22;52068;50.710;14.492;2024-03-23T03:38:24;23.44;43.07
65472;DHT22;52068;50.710;14.492;2024-03-23T03:40:50;23.50;43.00
65472;DHT22;52068;50.710;14.492;2024-03-23T03:43:15;23.57;42.88
65472;DHT22;52068;50.710;14.492;2024-03-23T03:45:40;23.64;42.61
65472;DHT22;52068;50.710;14.492;2024-03-23T03:48:07;23.68;42.50
65472;DHT22;52068;50.710;14.492;2024-03-23T03:50:32;23.74;42.44
65472;DHT22;52068;50.710;14.492;2024-03-23T03:52:58;23.74;42.33
65472;DHT22;52068;50.710;14.492;2024-03-23T03:55:23;23.76;42.25
65472;DHT22;52068;50.710;14.492;2024-03-23T03:57:49;23.75;42.30
65472;DHT22;52068;50.710;14.492;2024-03-23T04:00:14;23.78;42.23
65472;DHT22;52068;50.710;14.492;2024-03-23T04:02:40;23.75;42.27
65472;DHT22;52068;50.710;14.492;2024-03-23T04:05:06;23.69;42.36
65472;DHT22;52068;50.710;14.492;2024-03-23T04:07:31;23.66;42.40
65472;DHT22;52068;50.710;14.492;2024-03-23T04:09:56;23.64;42.40
65472;DHT22;52068;50.710;14.492;2024-03-23T04:12:23;23.65;42.42
65472;DHT22;52068;50.710;14.492;2024-03-23T04:14:49;23.64;42.55
65472;DHT22;52068;50.710;14.492;2024-03-23T04:17:14;23.61;42.52
65472;DHT22;52068;50.710;14.492;2024-03-23T04:19:40;23.62;42.46
65472;DHT22;52068;50.710;14.492;2024-03-23T04:22:06;23.62;42.43
65472;DHT22;52068;50.710;14.492;2024-03-23T04:24:31;23.57;42.54
65472;DHT22;52068;50.710;14.492;2024-03-23T04:26:57;23.55;42.58
65472;DHT22;52068;50.710;14.492;2024-03-23T04:29:23;23.58;42.54
65472;DHT22;52068;50.710;14.492;2024-03-23T04:31:48;23.55;42.59
65472;DHT22;52068;50.710;14.492;2024-03-23T04:34:13;23.51;42.65
65472;DHT22;52068;50.710;14.492;2024-03-23T04:36:39;23.48;42.67
65472;DHT22;52068;50.710;14.492;2024-03-23T04:39:05;23.45;42.67
65472;DHT22;52068;50.710;14.492;2024-03-23T04:41:33;23.50;42.62
65472;DHT22;52068;50.710;14.492;2024-03-23T04:43:59;23.58;42.41
65472;DHT22;52068;50.710;14.492;2024-03-23T04:46:24;23.64;42.22
65472;DHT22;52068;50.710;14.492;2024-03-23T04:48:50;23.71;42.07
65472;DHT22;52068;50.710;14.492;2024-03-23T04:51:24;23.71;41.96
65472;DHT22;52068;50.710;14.492;2024-03-23T04:53:50;23.75;41.96
65472;DHT22;52068;50.710;14.492;2024-03-23T04:56:16;23.72;41.86
65472;DHT22;52068;50.710;14.492;2024-03-23T04:58:45;23.71;41.96
65472;DHT22;52068;50.710;14.492;2024-03-23T05:01:11;23.65;42.03
65472;DHT22;52068;50.710;14.492;2024-03-23T05:03:37;23.62;42.05
65472;DHT22;52068;50.710;14.492;2024-03-23T05:06:03;23.62;42.21
65472;DHT22;52068;50.710;14.492;2024-03-23T05:08:28;23.61;42.22
65472;DHT22;52068;50.710;14.492;2024-03-23T05:10:54;23.58;42.30
65472;DHT22;52068;50.710;14.492;2024-03-23T05:13:19;23.59;42.39
65472;DHT22;52068;50.710;14.492;2024-03-23T05:15:51;23.59;42.43
65472;DHT22;52068;50.710;14.492;2024-03-23T05:18:17;23.55;41.80
65472;DHT22;52068;50.710;14.492;2024-03-23T05:20:42;23.51;42.00
65472;DHT22;52068;50.710;14.492;2024-03-23T05:23:08;23.48;42.24
65472;DHT22;52068;50.710;14.492;2024-03-23T05:25:34;23.48;42.28
65472;DHT22;52068;50.710;14.492;2024-03-23T05:27:59;23.55;42.21
65472;DHT22;52068;50.710;14.492;2024-03-23T05:30:25;23.58;42.16
65472;DHT22;52068;50.710;14.492;2024-03-23T05:32:50;23.57;42.12
65472;DHT22;52068;50.710;14.492;2024-03-23T05:35:15;23.54;42.13
65472;DHT22;52068;50.710;14.492;2024-03-23T05:37:41;23.52;42.17
65472;DHT22;52068;50.710;14.492;2024-03-23T05:40:06;23.48;42.20
65472;DHT22;52068;50.710;14.492;2024-03-23T05:42:33;23.47;42.13
65472;DHT22;52068;50.710;14.492;2024-03-23T05:44:59;23.51;42.00
65472;DHT22;52068;50.710;14.492;2024-03-23T05:47:24;23.64;41.76
65472;DHT22;52068;50.710;14.492;2024-03-23T05:49:49;23.68;41.62
65472;DHT22;52068;50.710;14.492;2024-03-23T05:52:16;23.78;41.48
65472;DHT22;52068;50.710;14.492;2024-03-23T05:54:42;23.81;41.38
65472;DHT22;52068;50.710;14.492;2024-03-23T05:57:09;23.84;41.33
65472;DHT22;52068;50.710;14.492;2024-03-23T05:59:34;23.85;41.25
65472;DHT22;52068;50.710;14.492;2024-03-23T06:02:00;23.88;41.27
65472;DHT22;52068;50.710;14.492;2024-03-23T06:04:27;23.85;41.26
65472;DHT22;52068;50.710;14.492;2024-03-23T06:06:52;23.84;41.29
65472;DHT22;52068;50.710;14.492;2024-03-23T06:09:18;23.79;41.37
65472;DHT22;52068;50.710;14.492;2024-03-23T06:11:44;23.75;41.38
65472;DHT22;52068;50.710;14.492;2024-03-23T06:14:10;23.72;41.52
65472;DHT22;52068;50.710;14.492;2024-03-23T06:16:35;23.68;41.52
65472;DHT22;52068;50.710;14.492;2024-03-23T06:19:00;23.66;41.63
65472;DHT22;52068;50.710;14.492;2024-03-23T06:21:28;23.62;41.68
65472;DHT22;52068;50.710;14.492;2024-03-23T06:23:54;23.61;41.69
65472;DHT22;52068;50.710;14.492;2024-03-23T06:26:20;23.58;41.74
65472;DHT22;52068;50.710;14.492;2024-03-23T06:28:46;23.57;41.80
65472;DHT22;52068;50.710;14.492;2024-03-23T06:31:12;23.57;41.80
65472;DHT22;52068;50.710;14.492;2024-03-23T06:33:38;23.55;41.80
65472;DHT22;52068;50.710;14.492;2024-03-23T06:36:09;23.55;41.81
65472;DHT22;52068;50.710;14.492;2024-03-23T06:38:34;23.57;41.80
65472;DHT22;52068;50.710;14.492;2024-03-23T06:41:02;23.59;41.77
65472;DHT22;52068;50.710;14.492;2024-03-23T06:43:28;23.71;41.37
65472;DHT22;52068;50.710;14.492;2024-03-23T06:45:54;23.89;41.02
65472;DHT22;52068;50.710;14.492;2024-03-23T06:48:20;24.06;40.75
65472;DHT22;52068;50.710;14.492;2024-03-23T06:50:46;24.24;40.49
65472;DHT22;52068;50.710;14.492;2024-03-23T06:53:15;24.29;40.38
65472;DHT22;52068;50.710;14.492;2024-03-23T06:55:41;24.37;40.36
65472;DHT22;52068;50.710;14.492;2024-03-23T06:58:06;24.36;40.41
65472;DHT22;52068;50.710;14.492;2024-03-23T07:00:32;24.34;40.50
65472;DHT22;52068;50.710;14.492;2024-03-23T07:02:58;24.30;40.61
65472;DHT22;52068;50.710;14.492;2024-03-23T07:05:23;24.29;40.73
65472;DHT22;52068;50.710;14.492;2024-03-23T07:07:49;24.23;40.80
65472;DHT22;52068;50.710;14.492;2024-03-23T07:10:14;24.24;40.91
65472;DHT22;52068;50.710;14.492;2024-03-23T07:12:40;24.23;40.95
65472;DHT22;52068;50.710;14.492;2024-03-23T07:15:05;24.23;41.12
65472;DHT22;52068;50.710;14.492;2024-03-23T07:17:31;24.23;41.17
65472;DHT22;52068;50.710;14.492;2024-03-23T07:19:58;24.23;41.29
65472;DHT22;52068;50.710;14.492;2024-03-23T07:22:23;24.22;41.18
65472;DHT22;52068;50.710;14.492;2024-03-23T07:24:49;24.17;41.24
65472;DHT22;52068;50.710;14.492;2024-03-23T07:27:14;24.19;41.22
65472;DHT22;52068;50.710;14.492;2024-03-23T07:29:40;24.20;41.20
65472;DHT22;52068;50.710;14.492;2024-03-23T07:32:05;24.19;41.13
65472;DHT22;52068;50.710;14.492;2024-03-23T07:34:31;24.20;41.09
65472;DHT22;52068;50.710;14.492;2024-03-23T07:36:56;24.20;41.10
65472;DHT22;52068;50.710;14.492;2024-03-23T07:39:22;24.17;41.13
65472;DHT22;52068;50.710;14.492;2024-03-23T07:41:47;24.12;41.19
65472;DHT22;52068;50.710;14.492;2024-03-23T07:44:12;24.08;41.27
65472;DHT22;52068;50.710;14.492;2024-03-23T07:46:38;24.05;41.26
65472;DHT22;52068;50.710;14.492;2024-03-23T07:49:06;24.10;41.09
65472;DHT22;52068;50.710;14.492;2024-03-23T07:51:32;24.23;40.87
65472;DHT22;52068;50.710;14.492;2024-03-23T07:53:58;24.43;40.54
65472;DHT22;52068;50.710;14.492;2024-03-23T07:56:24;24.57;40.22
65472;DHT22;52068;50.710;14.492;2024-03-23T07:58:49;24.68;39.93
65472;DHT22;52068;50.710;14.492;2024-03-23T08:01:16;24.73;39.70
65472;DHT22;52068;50.710;14.492;2024-03-23T08:03:43;24.77;39.71
65472;DHT22;52068;50.710;14.492;2024-03-23T08:06:16;24.80;39.65
65472;DHT22;52068;50.710;14.492;2024-03-23T08:08:42;24.78;39.60
65472;DHT22;52068;50.710;14.492;2024-03-23T08:11:08;24.73;39.68
65472;DHT22;52068;50.710;14.492;2024-03-23T08:13:34;24.71;39.66
65472;DHT22;52068;50.710;14.492;2024-03-23T08:16:01;24.73;39.69
65472;DHT22;52068;50.710;14.492;2024-03-23T08:18:27;24.74;39.12
65472;DHT22;52068;50.710;14.492;2024-03-23T08:20:59;24.70;38.60
65472;DHT22;52068;50.710;14.492;2024-03-23T08:23:26;24.68;38.59
65472;DHT22;52068;50.710;14.492;2024-03-23T08:25:52;24.65;38.38
65472;DHT22;52068;50.710;14.492;2024-03-23T08:28:22;24.65;38.45
65472;DHT22;52068;50.710;14.492;2024-03-23T08:30:47;24.60;38.54
65472;DHT22;52068;50.710;14.492;2024-03-23T08:33:13;24.59;38.46
65472;DHT22;52068;50.710;14.492;2024-03-23T08:35:38;24.57;38.34
65472;DHT22;52068;50.710;14.492;2024-03-23T08:38:04;24.53;38.24
65472;DHT22;52068;50.710;14.492;2024-03-23T08:40:29;24.50;38.22
65472;DHT22;52068;50.710;14.492;2024-03-23T08:42:55;24.49;38.39
65472;DHT22;52068;50.710;14.492;2024-03-23T08:45:20;24.43;38.33
65472;DHT22;52068;50.710;14.492;2024-03-23T08:47:45;24.39;38.24
65472;DHT22;52068;50.710;14.492;2024-03-23T08:50:11;24.36;38.35
65472;DHT22;52068;50.710;14.492;2024-03-23T08:52:36;24.33;38.29
65472;DHT22;52068;50.710;14.492;2024-03-23T08:55:01;24.33;38.28
65472;DHT22;52068;50.710;14.492;2024-03-23T08:57:27;24.43;38.20
65472;DHT22;52068;50.710;14.492;2024-03-23T08:59:52;24.52;37.82
65472;DHT22;52068;50.710;14.492;2024-03-23T09:02:17;24.49;37.69
65472;DHT22;52068;50.710;14.492;2024-03-23T09:04:44;24.36;37.96
65472;DHT22;52068;50.710;14.492;2024-03-23T09:07:09;24.20;38.21
65472;DHT22;52068;50.710;14.492;2024-03-23T09:09:35;24.09;38.47
65472;DHT22;52068;50.710;14.492;2024-03-23T09:12:02;23.93;39.20
65472;DHT22;52068;50.710;14.492;2024-03-23T09:14:28;23.82;39.16
65472;DHT22;52068;50.710;14.492;2024-03-23T09:16:54;23.74;39.36
65472;DHT22;52068;50.710;14.492;2024-03-23T09:19:20;23.61;39.56
65472;DHT22;52068;50.710;14.492;2024-03-23T09:21:46;23.52;40.08
65472;DHT22;52068;50.710;14.492;2024-03-23T09:24:11;23.51;39.91
65472;DHT22;52068;50.710;14.492;2024-03-23T09:26:36;23.41;40.10
65472;DHT22;52068;50.710;14.492;2024-03-23T09:29:02;23.33;40.30
65472;DHT22;52068;50.710;14.492;2024-03-23T09:31:27;23.33;39.97
65472;DHT22;52068;50.710;14.492;2024-03-23T09:33:52;23.37;40.09
65472;DHT22;52068;50.710;14.492;2024-03-23T09:36:18;23.43;39.93
65472;DHT22;52068;50.710;14.492;2024-03-23T09:38:43;23.59;39.58
65472;DHT22;52068;50.710;14.492;2024-03-23T09:41:09;24.12;38.79
65472;DHT22;52068;50.710;14.492;2024-03-23T09:43:35;24.74;37.20
65472;DHT22;52068;50.710;14.492;2024-03-23T09:46:02;25.84;36.00
65472;DHT22;52068;50.710;14.492;2024-03-23T09:48:28;26.94;33.85
65472;DHT22;52068;50.710;14.492;2024-03-23T09:50:53;28.18;31.68
65472;DHT22;52068;50.710;14.492;2024-03-23T09:53:19;29.65;29.37
65472;DHT22;52068;50.710;14.492;2024-03-23T09:55:44;31.17;27.10
65472;DHT22;52068;50.710;14.492;2024-03-23T09:58:15;32.57;24.61
65472;DHT22;52068;50.710;14.492;2024-03-23T10:00:40;33.72;23.48
65472;DHT22;52068;50.710;14.492;2024-03-23T10:03:05;34.81;22.90
65472;DHT22;52068;50.710;14.492;2024-03-23T10:05:32;36.21;21.88
65472;DHT22;52068;50.710;14.492;2024-03-23T10:10:38;38.55;20.00
65472;DHT22;52068;50.710;14.492;2024-03-23T10:13:03;39.21;19.45
65472;DHT22;52068;50.710;14.492;2024-03-23T10:15:29;39.51;19.24
65472;DHT22;52068;50.710;14.492;2024-03-23T10:17:54;39.33;19.37
65472;DHT22;52068;50.710;14.492;2024-03-23T10:20:21;38.87;19.67
65472;DHT22;52068;50.710;14.492;2024-03-23T10:22:50;38.31;20.21
65472;DHT22;52068;50.710;14.492;2024-03-23T10:25:16;37.68;20.73
65472;DHT22;52068;50.710;14.492;2024-03-23T10:27:42;37.02;21.25
65472;DHT22;52068;50.710;14.492;2024-03-23T10:30:13;36.32;21.98
65472;DHT22;52068;50.710;14.492;2024-03-23T10:32:40;35.64;22.75
65472;DHT22;52068;50.710;14.492;2024-03-23T10:37:42;34.35;24.08
65472;DHT22;52068;50.710;14.492;2024-03-23T10:40:09;33.77;24.69
65472;DHT22;52068;50.710;14.492;2024-03-23T10:42:36;33.22;25.32
65472;DHT22;52068;50.710;14.492;2024-03-23T10:45:04;32.70;25.86
65472;DHT22;52068;50.710;14.492;2024-03-23T10:47:29;32.17;26.41
65472;DHT22;52068;50.710;14.492;2024-03-23T10:49:55;31.73;26.89
65472;DHT22;52068;50.710;14.492;2024-03-23T10:52:20;31.24;27.52
65472;DHT22;52068;50.710;14.492;2024-03-23T10:54:47;30.86;28.11
65472;DHT22;52068;50.710;14.492;2024-03-23T10:57:17;30.41;28.72
65472;DHT22;52068;50.710;14.492;2024-03-23T10:59:44;30.02;29.09
65472;DHT22;52068;50.710;14.492;2024-03-23T11:02:19;29.64;29.66
65472;DHT22;52068;50.710;14.492;2024-03-23T11:04:45;29.30;30.30
65472;DHT22;52068;50.710;14.492;2024-03-23T11:07:30;28.90;30.79
65472;DHT22;52068;50.710;14.492;2024-03-23T11:09:56;28.57;31.34
65472;DHT22;52068;50.710;14.492;2024-03-23T11:15:11;27.95;32.32
65472;DHT22;52068;50.710;14.492;2024-03-23T11:17:37;27.74;32.48
65472;DHT22;52068;50.710;14.492;2024-03-23T11:20:05;27.49;32.88
65472;DHT22;52068;50.710;14.492;2024-03-23T11:22:44;27.25;33.45
65472;DHT22;52068;50.710;14.492;2024-03-23T11:27:41;26.78;34.26
65472;DHT22;52068;50.710;14.492;2024-03-23T11:30:13;26.59;34.58
65472;DHT22;52068;50.710;14.492;2024-03-23T11:32:39;26.43;34.70
65472;DHT22;52068;50.710;14.492;2024-03-23T11:35:05;26.25;35.38
65472;DHT22;52068;50.710;14.492;2024-03-23T11:37:31;26.10;35.60
65472;DHT22;52068;50.710;14.492;2024-03-23T11:39:56;25.94;35.80
65472;DHT22;52068;50.710;14.492;2024-03-23T11:42:21;25.84;35.86
65472;DHT22;52068;50.710;14.492;2024-03-23T11:44:47;25.73;36.09
65472;DHT22;52068;50.710;14.492;2024-03-23T11:47:12;25.63;35.91
65472;DHT22;52068;50.710;14.492;2024-03-23T11:49:38;25.49;36.01
65472;DHT22;52068;50.710;14.492;2024-03-23T11:52:06;25.38;36.46
65472;DHT22;52068;50.710;14.492;2024-03-23T11:54:33;25.25;36.90
65472;DHT22;52068;50.710;14.492;2024-03-23T11:57:07;25.14;37.17
65472;DHT22;52068;50.710;14.492;2024-03-23T11:59:40;25.04;37.04
65472;DHT22;52068;50.710;14.492;2024-03-23T12:02:10;24.91;37.19
65472;DHT22;52068;50.710;14.492;2024-03-23T12:04:44;24.85;37.39
65472;DHT22;52068;50.710;14.492;2024-03-23T12:09:38;24.73;37.88
65472;DHT22;52068;50.710;14.492;2024-03-23T12:12:21;24.64;38.32
65472;DHT22;52068;50.710;14.492;2024-03-23T12:15:07;24.57;38.41
65472;DHT22;52068;50.710;14.492;2024-03-23T12:17:34;24.53;37.98
65472;DHT22;52068;50.710;14.492;2024-03-23T12:20:02;24.50;38.41
65472;DHT22;52068;50.710;14.492;2024-03-23T12:22:28;24.47;38.47
65472;DHT22;52068;50.710;14.492;2024-03-23T12:24:57;24.40;38.59
65472;DHT22;52068;50.710;14.492;2024-03-23T12:27:22;24.39;38.92
65472;DHT22;52068;50.710;14.492;2024-03-23T12:29:48;24.30;38.50
65472;DHT22;52068;50.710;14.492;2024-03-23T12:32:14;24.27;38.71
65472;DHT22;52068;50.710;14.492;2024-03-23T12:34:40;24.23;38.93
65472;DHT22;52068;50.710;14.492;2024-03-23T12:37:06;24.23;38.81
65472;DHT22;52068;50.710;14.492;2024-03-23T12:39:32;24.22;38.53
65472;DHT22;52068;50.710;14.492;2024-03-23T12:41:57;24.20;38.88
65472;DHT22;52068;50.710;14.492;2024-03-23T12:44:23;24.17;38.87
65472;DHT22;52068;50.710;14.492;2024-03-23T12:46:48;24.16;38.79
65472;DHT22;52068;50.710;14.492;2024-03-23T12:49:13;24.13;38.77
65472;DHT22;52068;50.710;14.492;2024-03-23T12:51:49;24.13;38.73
65472;DHT22;52068;50.710;14.492;2024-03-23T12:54:18;24.09;38.65
65472;DHT22;52068;50.710;14.492;2024-03-23T12:56:43;24.08;39.05
65472;DHT22;52068;50.710;14.492;2024-03-23T12:59:10;24.05;38.72
65472;DHT22;52068;50.710;14.492;2024-03-23T13:01:36;24.06;38.72
65472;DHT22;52068;50.710;14.492;2024-03-23T13:04:01;24.09;39.08
65472;DHT22;52068;50.710;14.492;2024-03-23T13:06:27;24.06;39.02
65472;DHT22;52068;50.710;14.492;2024-03-23T13:08:57;24.10;38.78
65472;DHT22;52068;50.710;14.492;2024-03-23T13:11:22;24.10;38.66
65472;DHT22;52068;50.710;14.492;2024-03-23T13:13:48;24.08;38.56
65472;DHT22;52068;50.710;14.492;2024-03-23T13:16:13;24.08;39.24
65472;DHT22;52068;50.710;14.492;2024-03-23T13:18:38;24.10;39.64
65472;DHT22;52068;50.710;14.492;2024-03-23T13:21:04;24.12;39.77
65472;DHT22;52068;50.710;14.492;2024-03-23T13:23:29;24.17;39.80
65472;DHT22;52068;50.710;14.492;2024-03-23T13:25:56;24.23;39.76
65472;DHT22;52068;50.710;14.492;2024-03-23T13:28:22;24.26;39.72
65472;DHT22;52068;50.710;14.492;2024-03-23T13:30:54;24.26;39.46
65472;DHT22;52068;50.710;14.492;2024-03-23T13:33:20;24.26;39.27
65472;DHT22;52068;50.710;14.492;2024-03-23T13:35:52;24.24;39.26
65472;DHT22;52068;50.710;14.492;2024-03-23T13:38:19;24.26;39.08
65472;DHT22;52068;50.710;14.492;2024-03-23T13:40:55;24.19;39.08
65472;DHT22;52068;50.710;14.492;2024-03-23T13:43:22;24.17;39.03
65472;DHT22;52068;50.710;14.492;2024-03-23T13:45:58;24.13;39.10
65472;DHT22;52068;50.710;14.492;2024-03-23T13:48:25;24.13;39.14
65472;DHT22;52068;50.710;14.492;2024-03-23T13:51:04;24.12;38.91
65472;DHT22;52068;50.710;14.492;2024-03-23T13:53:30;24.10;38.85
65472;DHT22;52068;50.710;14.492;2024-03-23T13:55:56;24.08;38.87
65472;DHT22;52068;50.710;14.492;2024-03-23T13:58:22;24.03;38.60
65472;DHT22;52068;50.710;14.492;2024-03-23T14:00:48;24.06;38.80
65472;DHT22;52068;50.710;14.492;2024-03-23T14:03:14;24.09;38.83
65472;DHT22;52068;50.710;14.492;2024-03-23T14:05:40;24.08;38.78
65472;DHT22;52068;50.710;14.492;2024-03-23T14:08:07;24.08;38.61
65472;DHT22;52068;50.710;14.492;2024-03-23T14:10:32;24.03;38.45
65472;DHT22;52068;50.710;14.492;2024-03-23T14:12:58;23.93;38.59
65472;DHT22;52068;50.710;14.492;2024-03-23T14:15:26;23.86;38.55
65472;DHT22;52068;50.710;14.492;2024-03-23T14:17:51;23.84;38.78
65472;DHT22;52068;50.710;14.492;2024-03-23T14:20:17;23.79;38.86
65472;DHT22;52068;50.710;14.492;2024-03-23T14:22:42;23.74;38.71
65472;DHT22;52068;50.710;14.492;2024-03-23T14:25:09;23.71;38.58
65472;DHT22;52068;50.710;14.492;2024-03-23T14:27:34;23.68;38.92
65472;DHT22;52068;50.710;14.492;2024-03-23T14:30:03;23.66;38.85
65472;DHT22;52068;50.710;14.492;2024-03-23T14:32:33;23.66;38.67
65472;DHT22;52068;50.710;14.492;2024-03-23T14:35:05;23.66;38.77
65472;DHT22;52068;50.710;14.492;2024-03-23T14:37:32;23.66;38.49
65472;DHT22;52068;50.710;14.492;2024-03-23T14:39:58;23.64;38.57
65472;DHT22;52068;50.710;14.492;2024-03-23T14:42:24;23.65;39.11
65472;DHT22;52068;50.710;14.492;2024-03-23T14:44:50;23.66;39.37
65472;DHT22;52068;50.710;14.492;2024-03-23T14:47:16;23.69;39.51
65472;DHT22;52068;50.710;14.492;2024-03-23T14:49:43;23.74;39.97
65472;DHT22;52068;50.710;14.492;2024-03-23T14:52:15;23.82;40.00
65472;DHT22;52068;50.710;14.492;2024-03-23T14:54:40;23.85;40.01
65472;DHT22;52068;50.710;14.492;2024-03-23T14:57:06;23.92;39.83
65472;DHT22;52068;50.710;14.492;2024-03-23T14:59:35;23.95;39.68
65472;DHT22;52068;50.710;14.492;2024-03-23T15:02:00;24.01;39.21
65472;DHT22;52068;50.710;14.492;2024-03-23T15:04:26;24.01;39.15
65472;DHT22;52068;50.710;14.492;2024-03-23T15:06:51;24.05;39.19
65472;DHT22;52068;50.710;14.492;2024-03-23T15:09:17;24.08;39.02
65472;DHT22;52068;50.710;14.492;2024-03-23T15:11:43;24.08;38.98
65472;DHT22;52068;50.710;14.492;2024-03-23T15:14:08;24.03;38.92
65472;DHT22;52068;50.710;14.492;2024-03-23T15:16:35;23.96;38.40
65472;DHT22;52068;50.710;14.492;2024-03-23T15:19:01;23.90;38.83
65472;DHT22;52068;50.710;14.492;2024-03-23T15:21:26;23.90;39.22
65472;DHT22;52068;50.710;14.492;2024-03-23T15:23:51;23.84;39.07
65472;DHT22;52068;50.710;14.492;2024-03-23T15:26:17;23.79;39.30
65472;DHT22;52068;50.710;14.492;2024-03-23T15:28:42;23.78;39.27
65472;DHT22;52068;50.710;14.492;2024-03-23T15:31:23;23.79;39.23
65472;DHT22;52068;50.710;14.492;2024-03-23T15:33:48;23.76;39.57
65472;DHT22;52068;50.710;14.492;2024-03-23T15:36:14;23.78;39.52
65472;DHT22;52068;50.710;14.492;2024-03-23T15:38:39;23.76;39.78
65472;DHT22;52068;50.710;14.492;2024-03-23T15:41:05;23.76;39.74
65472;DHT22;52068;50.710;14.492;2024-03-23T15:43:30;23.72;39.54
65472;DHT22;52068;50.710;14.492;2024-03-23T15:46:05;23.72;39.70
65472;DHT22;52068;50.710;14.492;2024-03-23T15:48:35;23.71;40.02
65472;DHT22;52068;50.710;14.492;2024-03-23T15:51:02;23.72;39.79
65472;DHT22;52068;50.710;14.492;2024-03-23T15:53:29;23.68;40.02
65472;DHT22;52068;50.710;14.492;2024-03-23T15:56:02;23.66;40.16
65472;DHT22;52068;50.710;14.492;2024-03-23T15:58:29;23.64;40.12
65472;DHT22;52068;50.710;14.492;2024-03-23T16:00:58;23.61;40.34
65472;DHT22;52068;50.710;14.492;2024-03-23T16:03:24;23.58;40.28
65472;DHT22;52068;50.710;14.492;2024-03-23T16:05:59;23.59;40.39
65472;DHT22;52068;50.710;14.492;2024-03-23T16:08:25;23.59;40.56
65472;DHT22;52068;50.710;14.492;2024-03-23T16:10:51;23.59;40.34
65472;DHT22;52068;50.710;14.492;2024-03-23T16:13:17;23.58;40.48
65472;DHT22;52068;50.710;14.492;2024-03-23T16:15:46;23.61;40.49
65472;DHT22;52068;50.710;14.492;2024-03-23T16:18:19;23.59;40.36